Time;durP1;ratioP1;P1;durP2;ratioP2;P2;SDS_P1;SDS_P2;PMS_P1;PMS_P2;Temp;Humidity;BMP_temperature;BMP_pressure;BME280_temperature;BME280_humidity;BME280_pressure;Samples;Min_cycle;Max_cycle;Signal;HPM_P1;HPM_P2
2023/09/24 00:29:55;;;;;;;4.88;1.08;;;;;;;;;;5008351;27;20772;-65
2023/09/24 00:32:21;;;;;;;2.72;0.90;;;;;;;;;;4994698;28;20049;-62
2023/09/24 00:34:48;;;;;;;4.88;1.00;;;;;;;;;;5003397;28;20042;-63
2023/09/24 00:37:15;;;;;;;3.35;1.10;;;;;;;;;;4994367;28;20085;-64
2023/09/24 00:39:41;;;;;;;3.45;1.05;;;;;;;;;;4992954;28;20407;-59
2023/09/24 00:42:09;;;;;;;4.57;1.20;;;;;;;;;;4994555;28;20458;-61
2023/09/24 00:44:36;;;;;;;2.72;0.75;;;;;;;;;;4994558;28;20752;-63
2023/09/24 00:47:03;;;;;;;3.33;1.10;;;;;;;;;;4995041;28;20038;-63
2023/09/24 00:49:30;;;;;;;3.00;1.08;;;;;;;;;;4994007;28;20104;-64
2023/09/24 00:51:58;;;;;;;2.90;0.90;;;;;;;;;;4993744;28;20038;-63
2023/09/24 00:54:25;;;;;;;3.85;1.10;;;;;;;;;;4994752;28;20493;-63
2023/09/24 00:56:53;;;;;;;3.22;1.00;;;;;;;;;;4994884;28;20042;-63
2023/09/24 00:59:19;;;;;;;3.75;0.95;;;;;;;;;;4994027;28;20034;-64
2023/09/24 01:01:46;;;;;;;6.30;1.05;;;;;;;;;;4993996;28;20569;-62
2023/09/24 01:04:14;;;;;;;4.75;1.05;;;;;;;;;;4992759;28;20080;-63
2023/09/24 01:06:40;;;;;;;2.83;1.00;;;;;;;;;;4993441;28;20724;-61
2023/09/24 01:09:08;;;;;;;2.90;0.93;;;;;;;;;;4992367;28;20058;-63
2023/09/24 01:11:37;;;;;;;2.92;0.90;;;;;;;;;;4992682;28;20061;-63
2023/09/24 01:14:05;;;;;;;4.15;1.20;;;;;;;;;;4994548;28;20030;-63
2023/09/24 01:16:37;;;;;;;5.25;1.27;;;;;;;;;;5002414;28;20181;-61
2023/09/24 01:19:07;;;;;;;3.22;1.08;;;;;;;;;;4993075;28;20041;-62
2023/09/24 01:21:35;;;;;;;4.15;1.00;;;;;;;;;;4993844;28;20034;-61
2023/09/24 01:24:03;;;;;;;4.97;1.30;;;;;;;;;;4994191;28;20072;-64
2023/09/24 01:26:31;;;;;;;4.30;1.08;;;;;;;;;;4992554;28;20132;-62
2023/09/24 01:28:58;;;;;;;4.90;1.42;;;;;;;;;;5007165;28;20085;-63
2023/09/24 01:31:26;;;;;;;4.28;1.80;;;;;;;;;;4992611;28;20046;-63
2023/09/24 01:33:53;;;;;;;3.75;1.80;;;;;;;;;;4993047;28;20497;-64
2023/09/24 01:36:20;;;;;;;4.57;2.00;;;;;;;;;;4992844;28;20604;-62
2023/09/24 01:38:47;;;;;;;12.40;2.63;;;;;;;;;;5023337;28;20092;-64
2023/09/24 01:41:14;;;;;;;9.65;2.15;;;;;;;;;;4981168;28;20067;-62
2023/09/24 01:43:45;;;;;;;4.70;1.40;;;;;;;;;;4981395;28;20038;-61
2023/09/24 01:46:15;;;;;;;8.27;2.00;;;;;;;;;;4980173;28;20147;-62
2023/09/24 01:48:43;;;;;;;11.98;2.17;;;;;;;;;;5009930;28;20462;-61
2023/09/24 01:51:12;;;;;;;7.20;1.48;;;;;;;;;;4980174;28;20556;-63
2023/09/24 01:53:40;;;;;;;4.22;1.60;;;;;;;;;;4980021;28;20038;-63
2023/09/24 01:56:07;;;;;;;4.10;1.30;;;;;;;;;;4980541;28;20339;-62
2023/09/24 01:58:35;;;;;;;4.93;1.40;;;;;;;;;;4978685;28;20585;-62
2023/09/24 02:01:05;;;;;;;4.38;1.50;;;;;;;;;;4981396;28;20569;-65
2023/09/24 02:03:31;;;;;;;3.70;1.35;;;;;;;;;;4990724;28;20160;-65
2023/09/24 02:05:58;;;;;;;9.93;4.05;;;;;;;;;;4980255;28;20424;-63
2023/09/24 02:08:25;;;;;;;4.47;2.10;;;;;;;;;;4978331;28;20089;-63
2023/09/24 02:10:51;;;;;;;6.43;2.10;;;;;;;;;;4979941;28;20039;-63
2023/09/24 02:13:20;;;;;;;6.30;2.13;;;;;;;;;;4980771;28;20499;-62
2023/09/24 02:15:50;;;;;;;7.85;2.00;;;;;;;;;;4979339;28;20050;-62
2023/09/24 02:18:17;;;;;;;3.60;1.55;;;;;;;;;;4980386;28;20522;-62
2023/09/24 02:20:48;;;;;;;5.28;2.00;;;;;;;;;;4979055;28;20564;-61
2023/09/24 02:23:14;;;;;;;4.85;1.70;;;;;;;;;;4980102;28;20070;-63
2023/09/24 02:25:41;;;;;;;6.07;2.03;;;;;;;;;;4980505;28;20088;-62
2023/09/24 02:28:08;;;;;;;4.75;1.83;;;;;;;;;;4978877;28;20064;-62
2023/09/24 02:30:34;;;;;;;6.30;1.90;;;;;;;;;;4978489;28;20607;-62
2023/09/24 02:33:02;;;;;;;4.22;1.67;;;;;;;;;;4979939;28;20537;-59
2023/09/24 02:35:29;;;;;;;6.72;2.83;;;;;;;;;;4984319;28;20030;-65
2023/09/24 02:37:56;;;;;;;7.55;3.13;;;;;;;;;;5010736;28;20061;-64
2023/09/24 02:40:27;;;;;;;4.70;1.75;;;;;;;;;;4994242;28;20030;-63
2023/09/24 02:42:57;;;;;;;3.90;1.30;;;;;;;;;;4978564;28;20039;-64
2023/09/24 02:45:26;;;;;;;3.85;1.35;;;;;;;;;;4979295;28;20088;-64
2023/09/24 02:47:53;;;;;;;4.00;1.35;;;;;;;;;;4977696;28;20522;-63
2023/09/24 02:50:22;;;;;;;5.80;2.25;;;;;;;;;;4980968;28;20038;-63
2023/09/24 02:52:49;;;;;;;6.85;3.03;;;;;;;;;;4977712;28;20157;-64
2023/09/24 02:55:16;;;;;;;5.20;2.03;;;;;;;;;;4980813;28;20034;-64
2023/09/24 02:57:44;;;;;;;4.53;1.77;;;;;;;;;;4978405;28;20038;-60
2023/09/24 03:00:19;;;;;;;6.30;2.47;;;;;;;;;;4979939;28;20053;-63
2023/09/24 03:02:47;;;;;;;4.88;1.80;;;;;;;;;;4979413;28;20042;-63
2023/09/24 03:05:19;;;;;;;7.28;1.50;;;;;;;;;;4982255;28;20110;-63
2023/09/24 03:07:46;;;;;;;4.27;1.70;;;;;;;;;;4978775;28;20085;-64
2023/09/24 03:10:13;;;;;;;5.07;1.98;;;;;;;;;;4979581;28;20045;-62
2023/09/24 03:12:43;;;;;;;5.25;2.60;;;;;;;;;;4979557;28;20393;-64
2023/09/24 03:15:13;;;;;;;6.43;2.40;;;;;;;;;;4979005;28;20320;-64
2023/09/24 03:17:40;;;;;;;6.43;2.40;;;;;;;;;;4978388;28;20061;-64
2023/09/24 03:20:22;;;;;;;5.13;1.90;;;;;;;;;;4979757;28;20041;-63
2023/09/24 03:22:52;;;;;;;5.03;2.40;;;;;;;;;;4980974;28;20092;-63
2023/09/24 03:25:21;;;;;;;6.28;2.58;;;;;;;;;;4980062;28;20049;-63
2023/09/24 03:27:48;;;;;;;4.38;1.58;;;;;;;;;;4977796;28;20046;-64
2023/09/24 03:30:17;;;;;;;4.65;1.88;;;;;;;;;;4978361;28;21459;-64
2023/09/24 03:32:47;;;;;;;6.97;1.88;;;;;;;;;;4977567;28;20042;-64
2023/09/24 03:35:14;;;;;;;4.03;1.52;;;;;;;;;;4977814;28;20049;-61
2023/09/24 03:37:45;;;;;;;5.05;1.67;;;;;;;;;;4977026;28;20045;-64
2023/09/24 03:40:14;;;;;;;7.13;1.75;;;;;;;;;;5010632;28;20100;-64
2023/09/24 03:42:41;;;;;;;5.20;2.03;;;;;;;;;;4977130;28;20077;-63
2023/09/24 03:45:09;;;;;;;4.93;2.10;;;;;;;;;;4979432;28;20038;-64
2023/09/24 03:47:37;;;;;;;6.18;2.03;;;;;;;;;;4977260;28;20125;-65
2023/09/24 03:50:04;;;;;;;5.43;1.80;;;;;;;;;;4979836;28;20124;-64
2023/09/24 03:52:31;;;;;;;5.60;1.90;;;;;;;;;;4978526;28;20073;-63
2023/09/24 03:54:59;;;;;;;3.80;1.60;;;;;;;;;;4979511;28;20038;-64
2023/09/24 03:57:27;;;;;;;5.32;1.85;;;;;;;;;;4977882;28;20054;-63
2023/09/24 03:59:54;;;;;;;3.67;1.38;;;;;;;;;;4978491;28;20049;-63
2023/09/24 04:02:22;;;;;;;7.68;1.90;;;;;;;;;;4978157;28;20038;-62
2023/09/24 04:04:49;;;;;;;10.02;2.13;;;;;;;;;;4978398;28;20042;-63
2023/09/24 04:07:17;;;;;;;7.70;2.10;;;;;;;;;;4979581;28;20052;-63
2023/09/24 04:09:43;;;;;;;6.40;1.90;;;;;;;;;;4977717;28;20101;-64
2023/09/24 04:12:12;;;;;;;9.25;1.50;;;;;;;;;;4979933;28;20089;-62
2023/09/24 04:14:39;;;;;;;5.05;1.67;;;;;;;;;;4977987;28;20054;-62
2023/09/24 04:17:06;;;;;;;5.15;2.10;;;;;;;;;;4978263;28;20038;-64
2023/09/24 04:19:34;;;;;;;6.05;2.67;;;;;;;;;;4997654;28;20045;-63
2023/09/24 04:22:00;;;;;;;8.02;2.80;;;;;;;;;;4977920;28;20046;-63
2023/09/24 04:24:27;;;;;;;7.05;2.67;;;;;;;;;;4978434;28;20050;-63
2023/09/24 04:26:57;;;;;;;7.10;2.83;;;;;;;;;;4978363;28;20059;-62
2023/09/24 04:29:23;;;;;;;10.45;2.78;;;;;;;;;;4976423;28;20054;-62
2023/09/24 04:31:50;;;;;;;6.70;3.08;;;;;;;;;;4976460;28;20077;-64
2023/09/24 04:34:19;;;;;;;8.30;3.30;;;;;;;;;;4977037;28;20420;-64
2023/09/24 04:36:46;;;;;;;6.20;3.75;;;;;;;;;;4977261;28;20089;-63
2023/09/24 04:39:13;;;;;;;6.85;3.80;;;;;;;;;;4976032;28;20555;-63
2023/09/24 04:41:40;;;;;;;9.23;4.68;;;;;;;;;;4977034;28;20042;-63
2023/09/24 04:44:07;;;;;;;7.35;3.88;;;;;;;;;;4976725;28;20069;-64
2023/09/24 04:46:35;;;;;;;9.73;3.58;;;;;;;;;;4976518;28;20069;-64
2023/09/24 04:49:10;;;;;;;7.55;2.83;;;;;;;;;;4975948;28;20432;-63
2023/09/24 04:51:37;;;;;;;5.85;2.20;;;;;;;;;;4976829;28;20532;-64
2023/09/24 04:54:03;;;;;;;10.20;2.80;;;;;;;;;;4980102;28;20049;-64
2023/09/24 04:56:30;;;;;;;7.93;3.08;;;;;;;;;;4980257;28;20113;-63
2023/09/24 04:58:57;;;;;;;10.25;4.45;;;;;;;;;;4983138;28;20038;-62
2023/09/24 05:01:24;;;;;;;5.43;3.00;;;;;;;;;;4986150;28;20034;-62
2023/09/24 05:03:51;;;;;;;6.68;2.55;;;;;;;;;;4984688;28;20855;-63
2023/09/24 05:06:18;;;;;;;7.15;2.40;;;;;;;;;;4982774;28;20168;-64
2023/09/24 05:08:45;;;;;;;4.90;2.25;;;;;;;;;;4980922;28;20038;-62
2023/09/24 05:11:13;;;;;;;6.68;2.65;;;;;;;;;;4981306;28;20042;-63
2023/09/24 05:13:44;;;;;;;7.55;2.75;;;;;;;;;;4976670;28;20053;-64
2023/09/24 05:16:10;;;;;;;7.15;2.67;;;;;;;;;;4982569;28;20547;-63
2023/09/24 05:18:37;;;;;;;6.07;2.88;;;;;;;;;;4982795;28;20578;-63
2023/09/24 05:21:05;;;;;;;5.15;2.47;;;;;;;;;;4984276;28;20053;-63
2023/09/24 05:23:32;;;;;;;7.22;3.25;;;;;;;;;;4983317;28;20450;-63
2023/09/24 05:25:59;;;;;;;6.93;3.10;;;;;;;;;;4982445;28;20046;-63
2023/09/24 05:28:25;;;;;;;7.57;2.92;;;;;;;;;;4982369;28;20066;-63
2023/09/24 05:30:57;;;;;;;6.00;3.15;;;;;;;;;;4983624;28;20039;-61
2023/09/24 05:33:24;;;;;;;6.90;3.55;;;;;;;;;;4982196;28;20057;-64
2023/09/24 05:35:51;;;;;;;6.60;3.45;;;;;;;;;;4984132;28;20049;-63
2023/09/24 05:38:18;;;;;;;8.27;3.88;;;;;;;;;;4984178;28;20113;-63
2023/09/24 05:40:45;;;;;;;5.75;3.03;;;;;;;;;;4982276;28;20410;-63
2023/09/24 05:43:11;;;;;;;7.35;3.00;;;;;;;;;;4984211;28;20446;-63
2023/09/24 05:45:44;;;;;;;6.38;2.97;;;;;;;;;;4982321;28;20597;-61
2023/09/24 05:48:11;;;;;;;;;;;;;;;;;;4984192;28;20064;-63
2023/09/24 05:50:38;;;;;;;7.45;3.30;;;;;;;;;;4981385;28;20019;-62
2023/09/24 05:53:06;;;;;;;5.15;3.05;;;;;;;;;;4982106;28;21471;-63
2023/09/24 05:55:33;;;;;;;5.93;3.08;;;;;;;;;;4981223;28;20508;-63
2023/09/24 05:57:59;;;;;;;7.07;2.90;;;;;;;;;;4980622;28;20133;-62
2023/09/24 06:00:28;;;;;;;6.43;2.95;;;;;;;;;;4981295;28;20034;-64
2023/09/24 06:02:55;;;;;;;7.13;3.30;;;;;;;;;;4981124;28;20062;-62
2023/09/24 06:05:21;;;;;;;5.78;3.20;;;;;;;;;;4980093;28;20072;-62
2023/09/24 06:07:48;;;;;;;7.53;3.83;;;;;;;;;;4979403;28;20053;-63
2023/09/24 06:10:15;;;;;;;10.40;4.25;;;;;;;;;;4978247;28;20050;-62
2023/09/24 06:12:41;;;;;;;10.45;3.85;;;;;;;;;;4978438;28;20415;-62
2023/09/24 06:15:10;;;;;;;6.88;3.42;;;;;;;;;;4979364;28;20574;-63
2023/09/24 06:17:37;;;;;;;7.70;3.05;;;;;;;;;;4978323;28;20116;-63
2023/09/24 06:20:04;;;;;;;7.63;3.10;;;;;;;;;;4979772;28;20051;-64
2023/09/24 06:22:31;;;;;;;9.38;3.38;;;;;;;;;;4979786;28;20038;-63
2023/09/24 06:24:58;;;;;;;7.05;3.70;;;;;;;;;;4980213;28;20038;-63
2023/09/24 06:27:24;;;;;;;8.07;3.47;;;;;;;;;;4978059;28;20105;-63
2023/09/24 06:29:51;;;;;;;8.55;3.65;;;;;;;;;;4977999;28;20053;-61
2023/09/24 06:32:18;;;;;;;7.15;3.50;;;;;;;;;;4980101;28;20038;-62
2023/09/24 06:34:44;;;;;;;7.75;3.88;;;;;;;;;;4979051;28;20049;-63
2023/09/24 06:37:11;;;;;;;9.98;4.15;;;;;;;;;;4978618;28;20046;-64
2023/09/24 06:39:37;;;;;;;7.70;3.75;;;;;;;;;;4978062;28;20037;-64
2023/09/24 06:42:04;;;;;;;7.45;3.88;;;;;;;;;;4979707;28;20057;-64
2023/09/24 06:44:31;;;;;;;6.90;3.97;;;;;;;;;;4979177;28;20049;-63
2023/09/24 06:46:57;;;;;;;15.25;3.75;;;;;;;;;;4979608;28;20041;-64
2023/09/24 06:49:24;;;;;;;7.85;4.00;;;;;;;;;;4978425;28;20145;-64
2023/09/24 06:51:53;;;;;;;9.98;3.83;;;;;;;;;;5009664;28;20045;-64
2023/09/24 06:54:20;;;;;;;8.55;3.90;;;;;;;;;;4981061;28;20179;-64
2023/09/24 06:56:47;;;;;;;7.72;4.03;;;;;;;;;;4979897;28;20487;-64
2023/09/24 06:59:13;;;;;;;7.38;4.07;;;;;;;;;;4979798;28;20038;-65
2023/09/24 07:01:40;;;;;;;8.50;4.40;;;;;;;;;;4974266;28;20053;-64
2023/09/24 07:04:07;;;;;;;7.35;4.05;;;;;;;;;;4993173;28;20075;-64
2023/09/24 07:06:34;;;;;;;8.18;3.80;;;;;;;;;;4980093;28;20513;-65
2023/09/24 07:09:00;;;;;;;6.97;3.67;;;;;;;;;;4979687;28;20510;-64
2023/09/24 07:11:31;;;;;;;7.50;3.65;;;;;;;;;;4978552;28;20254;-64
2023/09/24 07:13:58;;;;;;;7.15;3.60;;;;;;;;;;4978895;28;20287;-64
2023/09/24 07:16:26;;;;;;;6.70;3.55;;;;;;;;;;4978273;28;20038;-64
2023/09/24 07:18:53;;;;;;;7.93;3.95;;;;;;;;;;4979799;28;20461;-64
2023/09/24 07:21:22;;;;;;;6.53;3.60;;;;;;;;;;4978457;28;20046;-66
2023/09/24 07:23:51;;;;;;;7.50;3.75;;;;;;;;;;4991570;28;20058;-64
2023/09/24 07:26:18;;;;;;;6.70;3.35;;;;;;;;;;4979581;28;20137;-64
2023/09/24 07:28:45;;;;;;;7.43;3.53;;;;;;;;;;4978378;28;20069;-64
2023/09/24 07:31:21;;;;;;;7.25;3.85;;;;;;;;;;4995028;28;20495;-63
2023/09/24 07:33:48;;;;;;;9.18;3.65;;;;;;;;;;4995550;28;20122;-64
2023/09/24 07:36:14;;;;;;;8.23;4.03;;;;;;;;;;4980499;28;20053;-62
2023/09/24 07:38:41;;;;;;;6.88;3.58;;;;;;;;;;4991636;28;20116;-63
2023/09/24 07:41:08;;;;;;;7.85;3.28;;;;;;;;;;4980651;28;20735;-63
2023/09/24 07:43:36;;;;;;;7.38;3.38;;;;;;;;;;4979287;28;21485;-65
2023/09/24 07:46:03;;;;;;;6.97;3.50;;;;;;;;;;4981496;28;20391;-64
2023/09/24 07:48:29;;;;;;;7.05;3.58;;;;;;;;;;4979006;28;20663;-63
2023/09/24 07:50:56;;;;;;;10.07;3.88;;;;;;;;;;4980404;28;20038;-64
2023/09/24 07:53:23;;;;;;;7.43;3.28;;;;;;;;;;5010647;28;20038;-64
2023/09/24 07:55:57;;;;;;;7.68;4.20;;;;;;;;;;4979107;28;20086;-65
2023/09/24 07:58:24;;;;;;;7.47;3.80;;;;;;;;;;4978995;28;20041;-63
2023/09/24 08:00:54;;;;;;;7.18;3.58;;;;;;;;;;4978770;28;20045;-64
2023/09/24 08:03:21;;;;;;;6.78;3.45;;;;;;;;;;4979163;28;20561;-64
2023/09/24 08:05:47;;;;;;;8.80;3.58;;;;;;;;;;4977461;28;20033;-64
2023/09/24 08:08:14;;;;;;;10.68;3.65;;;;;;;;;;4977108;28;20121;-63
2023/09/24 08:10:40;;;;;;;8.68;3.80;;;;;;;;;;4977273;28;20043;-62
2023/09/24 08:13:07;;;;;;;7.22;3.70;;;;;;;;;;4977972;28;20049;-66
2023/09/24 08:15:34;;;;;;;8.07;3.78;;;;;;;;;;4977514;28;20101;-64
2023/09/24 08:18:01;;;;;;;6.57;3.70;;;;;;;;;;4977986;28;20098;-64
2023/09/24 08:20:28;;;;;;;6.30;3.28;;;;;;;;;;4977312;28;20038;-65
2023/09/24 08:22:54;;;;;;;7.70;3.70;;;;;;;;;;4978653;28;20121;-64
2023/09/24 08:25:21;;;;;;;6.85;3.67;;;;;;;;;;4992513;28;20502;-64
2023/09/24 08:27:48;;;;;;;6.15;3.28;;;;;;;;;;4974992;28;20042;-64
2023/09/24 08:30:14;;;;;;;6.15;3.42;;;;;;;;;;4978572;28;20049;-63
2023/09/24 08:32:41;;;;;;;6.00;3.22;;;;;;;;;;4977577;28;20049;-64
2023/09/24 08:35:08;;;;;;;8.73;4.38;;;;;;;;;;4976467;28;20100;-65
2023/09/24 08:37:35;;;;;;;7.20;3.63;;;;;;;;;;4977277;28;20466;-65
2023/09/24 08:40:01;;;;;;;8.05;3.63;;;;;;;;;;4975788;28;20042;-65
2023/09/24 08:42:28;;;;;;;8.23;3.83;;;;;;;;;;4975724;28;20121;-65
2023/09/24 08:45:03;;;;;;;6.50;3.47;;;;;;;;;;4978075;28;20058;-64
2023/09/24 08:47:31;;;;;;;6.20;3.00;;;;;;;;;;4988961;28;20737;-64
2023/09/24 08:49:58;;;;;;;6.80;3.13;;;;;;;;;;4977006;28;20107;-64
2023/09/24 08:52:25;;;;;;;5.75;3.30;;;;;;;;;;4995343;28;20109;-64
2023/09/24 08:54:51;;;;;;;8.48;3.85;;;;;;;;;;4982186;28;20050;-64
2023/09/24 08:57:18;;;;;;;6.32;3.30;;;;;;;;;;4981923;28;20482;-65
2023/09/24 08:59:45;;;;;;;10.88;3.70;;;;;;;;;;4980954;28;20061;-63
2023/09/24 09:02:11;;;;;;;8.98;3.65;;;;;;;;;;4981677;28;20140;-66
2023/09/24 09:04:48;;;;;;;7.22;3.53;;;;;;;;;;4976167;28;20137;-64
2023/09/24 09:07:15;;;;;;;6.47;3.60;;;;;;;;;;4978784;28;20048;-64
2023/09/24 09:09:42;;;;;;;9.48;3.38;;;;;;;;;;4981210;28;20124;-64
2023/09/24 09:12:18;;;;;;;8.65;3.65;;;;;;;;;;4982575;28;20238;-64
2023/09/24 09:14:45;;;;;;;7.82;3.58;;;;;;;;;;5010517;28;20050;-63
2023/09/24 09:17:12;;;;;;;7.97;3.78;;;;;;;;;;4980674;28;20046;-64
2023/09/24 09:19:57;;;;;;;7.82;4.13;;;;;;;;;;4980312;28;20502;-65
2023/09/24 09:22:26;;;;;;;6.90;3.67;;;;;;;;;;4995393;28;20456;-66
2023/09/24 09:25:02;;;;;;;8.45;4.18;;;;;;;;;;4980675;28;20042;-62
2023/09/24 09:27:43;;;;;;;8.52;4.03;;;;;;;;;;4980142;28;21753;-63
2023/09/24 09:30:15;;;;;;;8.07;3.83;;;;;;;;;;4980413;28;20050;-61
2023/09/24 09:32:43;;;;;;;8.77;4.10;;;;;;;;;;5010985;28;20503;-65
2023/09/24 09:35:10;;;;;;;7.80;3.80;;;;;;;;;;4987052;28;20083;-63
2023/09/24 09:37:39;;;;;;;8.63;4.35;;;;;;;;;;4981431;28;20395;-63
2023/09/24 09:40:06;;;;;;;7.25;4.22;;;;;;;;;;4979642;28;20570;-63
2023/09/24 09:42:36;;;;;;;12.10;4.20;;;;;;;;;;4994524;28;20415;-63
2023/09/24 09:45:09;;;;;;;8.82;4.30;;;;;;;;;;4994844;28;20133;-62
2023/09/24 09:48:02;;;;;;;8.63;4.35;;;;;;;;;;4978262;28;20088;-63
2023/09/24 09:50:31;;;;;;;9.10;4.68;;;;;;;;;;4974530;28;20053;-63
2023/09/24 09:52:59;;;;;;;8.05;4.47;;;;;;;;;;4979439;28;20077;-63
2023/09/24 09:55:26;;;;;;;6.82;4.18;;;;;;;;;;4979062;28;20050;-63
2023/09/24 09:57:52;;;;;;;10.60;4.97;;;;;;;;;;4994099;28;20042;-63
2023/09/24 10:00:19;;;;;;;8.15;4.78;;;;;;;;;;4964243;28;20046;-61
2023/09/24 10:02:48;;;;;;;8.40;4.57;;;;;;;;;;4979725;28;20052;-63
2023/09/24 10:05:16;;;;;;;10.95;4.93;;;;;;;;;;4980188;28;20033;-63
2023/09/24 10:07:43;;;;;;;8.20;4.70;;;;;;;;;;4978372;28;20514;-63
2023/09/24 10:10:40;;;;;;;8.88;5.10;;;;;;;;;;4980063;28;20065;-63
2023/09/24 10:13:07;;;;;;;9.57;5.13;;;;;;;;;;4976448;28;20391;-62
2023/09/24 10:15:33;;;;;;;7.90;4.95;;;;;;;;;;4975958;28;20042;-64
2023/09/24 10:18:12;;;;;;;9.43;4.80;;;;;;;;;;4979832;28;20042;-63
2023/09/24 10:20:55;;;;;;;8.98;5.07;;;;;;;;;;4979216;28;20498;-64
2023/09/24 10:23:31;;;;;;;8.90;5.10;;;;;;;;;;4979412;28;20133;-64
2023/09/24 10:26:00;;;;;;;11.38;5.13;;;;;;;;;;4979509;28;20663;-64
2023/09/24 10:28:45;;;;;;;8.25;5.05;;;;;;;;;;4980741;28;20444;-63
2023/09/24 10:31:12;;;;;;;14.15;5.60;;;;;;;;;;4979033;28;20056;-63
2023/09/24 10:33:58;;;;;;;9.75;5.28;;;;;;;;;;5000093;28;20050;-61
2023/09/24 10:36:29;;;;;;;9.07;5.25;;;;;;;;;;5008946;28;20050;-65
2023/09/24 10:39:05;;;;;;;8.45;5.18;;;;;;;;;;4976740;28;20344;-64
2023/09/24 10:41:33;;;;;;;9.02;5.20;;;;;;;;;;4979211;28;20038;-64
2023/09/24 10:44:18;;;;;;;10.50;5.20;;;;;;;;;;4980257;28;20283;-65
2023/09/24 10:46:45;;;;;;;11.63;5.68;;;;;;;;;;4979611;28;20038;-64
2023/09/24 10:49:17;;;;;;;10.18;5.22;;;;;;;;;;4978397;28;20039;-64
2023/09/24 10:51:44;;;;;;;9.30;5.32;;;;;;;;;;4994364;28;20058;-64
2023/09/24 10:54:11;;;;;;;9.63;5.53;;;;;;;;;;5012597;28;20082;-63
2023/09/24 10:56:38;;;;;;;11.15;5.32;;;;;;;;;;4979959;28;20059;-64
2023/09/24 10:59:05;;;;;;;10.27;5.57;;;;;;;;;;4980112;28;20349;-65
2023/09/24 11:01:32;;;;;;;10.05;5.30;;;;;;;;;;4979903;28;20822;-64
2023/09/24 11:03:58;;;;;;;10.52;5.57;;;;;;;;;;4979200;28;20050;-65
2023/09/24 11:06:31;;;;;;;9.68;5.25;;;;;;;;;;4979220;28;20038;-64
2023/09/24 11:09:16;;;;;;;10.52;5.47;;;;;;;;;;4979665;28;20398;-64
2023/09/24 11:11:43;;;;;;;10.85;5.65;;;;;;;;;;4979242;28;20047;-66
2023/09/24 11:14:17;;;;;;;9.98;5.50;;;;;;;;;;4994720;28;20134;-63
2023/09/24 11:16:44;;;;;;;9.68;5.88;;;;;;;;;;4979316;28;20333;-63
2023/09/24 11:19:10;;;;;;;11.25;5.97;;;;;;;;;;4979544;28;20042;-64
2023/09/24 11:21:37;;;;;;;10.30;5.63;;;;;;;;;;4978232;28;20474;-64
2023/09/24 11:24:25;;;;;;;12.95;5.97;;;;;;;;;;4984985;28;20119;-64
2023/09/24 11:26:51;;;;;;;10.02;5.43;;;;;;;;;;5000718;28;20517;-63
2023/09/24 11:29:18;;;;;;;10.35;5.82;;;;;;;;;;4980664;28;20074;-64
2023/09/24 11:31:45;;;;;;;8.68;5.20;;;;;;;;;;5010412;28;20073;-63
2023/09/24 11:34:22;;;;;;;14.25;6.20;;;;;;;;;;4977272;28;20466;-65
2023/09/24 11:36:57;;;;;;;11.68;5.82;;;;;;;;;;4978970;28;20053;-64
2023/09/24 11:39:24;;;;;;;11.95;6.07;;;;;;;;;;4977893;28;20057;-64
2023/09/24 11:41:51;;;;;;;10.63;6.30;;;;;;;;;;4979649;28;20511;-63
2023/09/24 11:44:20;;;;;;;13.32;6.10;;;;;;;;;;4979818;28;20065;-63
2023/09/24 11:46:48;;;;;;;12.88;6.25;;;;;;;;;;4986242;28;20053;-62
2023/09/24 11:49:14;;;;;;;14.07;7.70;;;;;;;;;;5009338;28;20259;-64
2023/09/24 11:51:41;;;;;;;14.32;7.13;;;;;;;;;;4999367;28;21550;-64
2023/09/24 11:54:11;;;;;;;15.48;6.43;;;;;;;;;;4975555;28;20041;-63
2023/09/24 11:56:38;;;;;;;10.85;6.05;;;;;;;;;;4977173;28;20501;-65
2023/09/24 11:59:05;;;;;;;10.13;5.85;;;;;;;;;;4976865;28;20491;-63
2023/09/24 12:01:31;;;;;;;10.95;6.03;;;;;;;;;;4991138;28;20406;-64
2023/09/24 12:03:58;;;;;;;13.15;6.03;;;;;;;;;;4975499;28;20061;-62
2023/09/24 12:06:24;;;;;;;10.40;5.80;;;;;;;;;;4976405;28;20045;-62
2023/09/24 12:08:51;;;;;;;11.02;5.90;;;;;;;;;;4977321;28;20564;-63
2023/09/24 12:11:18;;;;;;;9.10;5.45;;;;;;;;;;4978350;28;20042;-63
2023/09/24 12:13:44;;;;;;;10.50;5.85;;;;;;;;;;4984849;28;20123;-62
2023/09/24 12:16:11;;;;;;;10.45;6.13;;;;;;;;;;4977213;28;20100;-62
2023/09/24 12:18:40;;;;;;;11.40;5.97;;;;;;;;;;4977160;28;20451;-64
2023/09/24 12:21:06;;;;;;;9.55;5.63;;;;;;;;;;4977049;28;20042;-63
2023/09/24 12:23:33;;;;;;;11.88;6.05;;;;;;;;;;4979226;28;21418;-63
2023/09/24 12:26:00;;;;;;;11.57;5.78;;;;;;;;;;4977343;28;21450;-63
2023/09/24 12:28:28;;;;;;;10.02;5.85;;;;;;;;;;4974628;28;20342;-63
2023/09/24 12:30:54;;;;;;;11.40;6.32;;;;;;;;;;4976658;28;20042;-66
2023/09/24 12:33:21;;;;;;;11.55;6.13;;;;;;;;;;4978688;28;20557;-67
2023/09/24 12:35:49;;;;;;;11.77;6.18;;;;;;;;;;4976357;28;20108;-63
2023/09/24 12:38:16;;;;;;;11.52;6.00;;;;;;;;;;4976293;28;20168;-63
2023/09/24 12:40:42;;;;;;;10.30;4.97;;;;;;;;;;4972892;28;20050;-62
2023/09/24 12:43:09;;;;;;;9.50;5.22;;;;;;;;;;5008223;28;20216;-63
2023/09/24 12:45:36;;;;;;;11.57;6.13;;;;;;;;;;4974586;28;20042;-63
2023/09/24 12:48:03;;;;;;;9.63;5.40;;;;;;;;;;4977817;28;20066;-63
2023/09/24 12:50:30;;;;;;;12.48;5.80;;;;;;;;;;4974970;28;20049;-62
2023/09/24 12:52:57;;;;;;;10.10;5.50;;;;;;;;;;5007612;28;20031;-64
2023/09/24 12:55:25;;;;;;;12.27;5.93;;;;;;;;;;4975708;28;20061;-65
2023/09/24 12:57:52;;;;;;;10.77;5.88;;;;;;;;;;4976353;28;20054;-63
2023/09/24 13:00:21;;;;;;;11.48;5.97;;;;;;;;;;4976524;28;20042;-63
2023/09/24 13:02:48;;;;;;;11.52;5.93;;;;;;;;;;4970931;28;20097;-62
2023/09/24 13:05:20;;;;;;;10.07;5.85;;;;;;;;;;4977981;28;20581;-61
2023/09/24 13:07:47;;;;;;;12.37;5.43;;;;;;;;;;4976662;28;20423;-62
2023/09/24 13:10:14;;;;;;;11.20;5.57;;;;;;;;;;4977312;28;20671;-60
2023/09/24 13:12:41;;;;;;;9.82;5.80;;;;;;;;;;4976025;28;20073;-62
2023/09/24 13:15:09;;;;;;;10.20;5.70;;;;;;;;;;4977890;28;20038;-63
2023/09/24 13:17:35;;;;;;;10.55;5.72;;;;;;;;;;4979500;28;20146;-61
2023/09/24 13:20:03;;;;;;;9.07;5.15;;;;;;;;;;4978649;28;20038;-63
2023/09/24 13:22:29;;;;;;;10.60;5.55;;;;;;;;;;4977008;28;20480;-63
2023/09/24 13:25:16;;;;;;;14.32;6.45;;;;;;;;;;4979042;28;20849;-62
2023/09/24 13:27:43;;;;;;;11.65;5.63;;;;;;;;;;4980538;28;20041;-63
2023/09/24 13:30:10;;;;;;;9.88;5.45;;;;;;;;;;4980868;28;20715;-63
2023/09/24 13:32:36;;;;;;;10.65;5.32;;;;;;;;;;4986582;28;20182;-64
2023/09/24 13:35:06;;;;;;;11.45;5.75;;;;;;;;;;4986730;28;20455;-64
2023/09/24 13:37:32;;;;;;;11.10;6.30;;;;;;;;;;4985346;28;20038;-64
2023/09/24 13:40:01;;;;;;;15.07;6.57;;;;;;;;;;4983044;28;20074;-64
2023/09/24 13:42:27;;;;;;;11.75;5.97;;;;;;;;;;4983573;28;20615;-67
2023/09/24 13:44:54;;;;;;;11.13;5.80;;;;;;;;;;4984695;28;20026;-58
2023/09/24 13:47:20;;;;;;;11.68;6.07;;;;;;;;;;4984489;28;20740;-64
2023/09/24 13:49:47;;;;;;;13.10;5.93;;;;;;;;;;4983254;28;20691;-62
2023/09/24 13:52:14;;;;;;;13.35;6.43;;;;;;;;;;4999102;28;20041;-66
2023/09/24 13:54:40;;;;;;;15.07;5.45;;;;;;;;;;4983890;28;20053;-62
2023/09/24 13:57:08;;;;;;;11.32;5.88;;;;;;;;;;4983734;28;20489;-62
2023/09/24 13:59:34;;;;;;;12.55;6.18;;;;;;;;;;4984217;28;20885;-62
2023/09/24 14:02:03;;;;;;;11.07;5.90;;;;;;;;;;4986389;28;20493;-63
2023/09/24 14:04:30;;;;;;;14.05;5.75;;;;;;;;;;4982564;28;20979;-61
2023/09/24 14:07:00;;;;;;;10.88;5.80;;;;;;;;;;4981730;28;20038;-63
2023/09/24 14:12:20;;;;;;;9.70;5.47;;;;;;;;;;4979829;28;20174;-60
2023/09/24 14:14:46;;;;;;;10.05;5.10;;;;;;;;;;4976552;28;20034;-62
2023/09/24 14:17:13;;;;;;;9.40;4.65;;;;;;;;;;4980383;28;20503;-63
2023/09/24 14:19:39;;;;;;;9.15;4.80;;;;;;;;;;4978052;28;20053;-63
2023/09/24 14:22:06;;;;;;;10.00;4.78;;;;;;;;;;4979350;28;20046;-64
2023/09/24 14:24:33;;;;;;;8.00;4.40;;;;;;;;;;4977961;28;20427;-66
2023/09/24 14:27:02;;;;;;;7.95;4.25;;;;;;;;;;4977036;28;20049;-63
2023/09/24 14:29:29;;;;;;;8.70;4.38;;;;;;;;;;4978549;28;20124;-63
2023/09/24 14:31:56;;;;;;;8.65;4.72;;;;;;;;;;4979138;28;20482;-63
2023/09/24 14:34:22;;;;;;;7.55;3.83;;;;;;;;;;4978136;28;20476;-63
2023/09/24 14:36:49;;;;;;;7.75;4.10;;;;;;;;;;4980686;28;20049;-64
2023/09/24 14:39:16;;;;;;;9.40;4.57;;;;;;;;;;4977978;28;20120;-63
2023/09/24 14:41:42;;;;;;;8.07;4.40;;;;;;;;;;4978567;28;20050;-61
2023/09/24 14:44:10;;;;;;;7.30;3.78;;;;;;;;;;4993702;28;20038;-63
2023/09/24 14:46:42;;;;;;;7.47;3.65;;;;;;;;;;4979215;28;20081;-63
2023/09/24 14:49:09;;;;;;;8.52;4.22;;;;;;;;;;4978394;28;20054;-62
2023/09/24 14:51:36;;;;;;;7.30;3.33;;;;;;;;;;4978416;28;20165;-61
2023/09/24 14:54:03;;;;;;;9.55;4.95;;;;;;;;;;4979067;28;20538;-63
2023/09/24 14:56:29;;;;;;;10.70;4.18;;;;;;;;;;4977513;28;20038;-64
2023/09/24 14:58:56;;;;;;;8.68;3.80;;;;;;;;;;4978198;28;20038;-63
2023/09/24 15:01:23;;;;;;;8.73;4.22;;;;;;;;;;4977586;28;20112;-66
2023/09/24 15:03:49;;;;;;;7.40;3.70;;;;;;;;;;4979251;28;20120;-66
2023/09/24 15:06:16;;;;;;;7.32;4.13;;;;;;;;;;4978402;28;20120;-62
2023/09/24 15:08:43;;;;;;;10.85;4.25;;;;;;;;;;4977080;28;21099;-63
2023/09/24 15:11:09;;;;;;;9.13;4.10;;;;;;;;;;4980076;28;20065;-65
2023/09/24 15:13:37;;;;;;;8.98;4.05;;;;;;;;;;4984563;28;20046;-63
2023/09/24 15:16:04;;;;;;;11.13;4.10;;;;;;;;;;4966061;28;20042;-63
2023/09/24 15:18:30;;;;;;;8.30;4.07;;;;;;;;;;4979460;28;20323;-65